sensor_id;sensor_type;location;lat;lon;timestamp;temperature;humidity
45735;DHT22;31446;49.632;8.328;2023-02-17T00:02:47;10.00;99.90
45735;DHT22;31446;49.632;8.328;2023-02-17T00:17:53;10.40;99.90
45735;DHT22;31446;49.632;8.328;2023-02-17T00:32:59;10.80;99.90
45735;DHT22;31446;49.632;8.328;2023-02-17T00:48:06;10.90;99.90
45735;DHT22;31446;49.632;8.328;2023-02-17T01:03:12;11.00;99.90
45735;DHT22;31446;49.632;8.328;2023-02-17T01:18:21;10.90;99.90
45735;DHT22;31446;49.632;8.328;2023-02-17T01:33:27;10.80;99.90
45735;DHT22;31446;49.632;8.328;2023-02-17T01:48:35;10.70;99.90
45735;DHT22;31446;49.632;8.328;2023-02-17T02:03:43;10.70;99.90
45735;DHT22;31446;49.632;8.328;2023-02-17T02:18:55;10.60;99.90
45735;DHT22;31446;49.632;8.328;2023-02-17T02:34:06;10.70;99.90
45735;DHT22;31446;49.632;8.328;2023-02-17T02:49:14;10.70;99.90
45735;DHT22;31446;49.632;8.328;2023-02-17T03:04:25;10.70;99.90
45735;DHT22;31446;49.632;8.328;2023-02-17T03:19:34;10.70;99.90
45735;DHT22;31446;49.632;8.328;2023-02-17T03:34:40;10.60;99.90
45735;DHT22;31446;49.632;8.328;2023-02-17T03:49:46;10.50;99.90
45735;DHT22;31446;49.632;8.328;2023-02-17T04:04:52;10.60;99.90
45735;DHT22;31446;49.632;8.328;2023-02-17T04:19:58;10.50;99.90
45735;DHT22;31446;49.632;8.328;2023-02-17T04:35:05;10.60;99.90
45735;DHT22;31446;49.632;8.328;2023-02-17T04:50:12;10.60;99.90
45735;DHT22;31446;49.632;8.328;2023-02-17T05:05:18;10.60;99.90
45735;DHT22;31446;49.632;8.328;2023-02-17T05:20:24;10.70;99.90
45735;DHT22;31446;49.632;8.328;2023-02-17T05:35:32;10.70;99.90
45735;DHT22;31446;49.632;8.328;2023-02-17T05:50:38;10.80;99.90
45735;DHT22;31446;49.632;8.328;2023-02-17T06:05:44;10.80;99.90
45735;DHT22;31446;49.632;8.328;2023-02-17T06:20:53;10.90;99.90
45735;DHT22;31446;49.632;8.328;2023-02-17T06:35:59;10.80;99.90
45735;DHT22;31446;49.632;8.328;2023-02-17T06:51:06;10.80;99.90
45735;DHT22;31446;49.632;8.328;2023-02-17T07:06:12;10.80;99.90
45735;DHT22;31446;49.632;8.328;2023-02-17T07:21:18;10.90;99.90
45735;DHT22;31446;49.632;8.328;2023-02-17T07:36:24;11.00;99.90
45735;DHT22;31446;49.632;8.328;2023-02-17T07:51:30;11.10;99.90
45735;DHT22;31446;49.632;8.328;2023-02-17T08:06:37;11.20;99.90
45735;DHT22;31446;49.632;8.328;2023-02-17T08:21:43;11.20;99.90
45735;DHT22;31446;49.632;8.328;2023-02-17T08:36:49;11.30;99.90
45735;DHT22;31446;49.632;8.328;2023-02-17T08:51:56;11.50;99.90
45735;DHT22;31446;49.632;8.328;2023-02-17T09:07:02;11.60;99.90
45735;DHT22;31446;49.632;8.328;2023-02-17T09:22:08;11.80;99.90
45735;DHT22;31446;49.632;8.328;2023-02-17T09:37:17;11.90;99.90
45735;DHT22;31446;49.632;8.328;2023-02-17T09:52:27;12.10;99.90
45735;DHT22;31446;49.632;8.328;2023-02-17T10:07:40;12.30;99.90
45735;DHT22;31446;49.632;8.328;2023-02-17T10:22:51;12.40;99.90
45735;DHT22;31446;49.632;8.328;2023-02-17T10:38:05;12.20;99.90
45735;DHT22;31446;49.632;8.328;2023-02-17T10:53:18;12.50;99.90
45735;DHT22;31446;49.632;8.328;2023-02-17T11:08:34;12.60;99.90
45735;DHT22;31446;49.632;8.328;2023-02-17T11:23:50;12.60;99.90
45735;DHT22;31446;49.632;8.328;2023-02-17T11:38:57;12.40;99.90
45735;DHT22;31446;49.632;8.328;2023-02-17T11:54:11;12.60;99.90
45735;DHT22;31446;49.632;8.328;2023-02-17T12:09:26;12.80;99.90
45735;DHT22;31446;49.632;8.328;2023-02-17T12:39:50;14.80;99.90
45735;DHT22;31446;49.632;8.328;2023-02-17T12:55:02;14.20;99.90
45735;DHT22;31446;49.632;8.328;2023-02-17T13:10:18;13.70;99.90
45735;DHT22;31446;49.632;8.328;2023-02-17T13:25:30;13.50;99.90
45735;DHT22;31446;49.632;8.328;2023-02-17T13:40:39;13.50;99.90
45735;DHT22;31446;49.632;8.328;2023-02-17T13:55:46;13.80;99.90
45735;DHT22;31446;49.632;8.328;2023-02-17T14:10:52;13.50;99.90
45735;DHT22;31446;49.632;8.328;2023-02-17T14:26:09;13.30;99.90
45735;DHT22;31446;49.632;8.328;2023-02-17T14:41:15;13.20;99.90
45735;DHT22;31446;49.632;8.328;2023-02-17T14:56:25;13.10;99.90
45735;DHT22;31446;49.632;8.328;2023-02-17T15:11:34;13.10;99.90
45735;DHT22;31446;49.632;8.328;2023-02-17T15:26:40;12.80;99.90
45735;DHT22;31446;49.632;8.328;2023-02-17T15:41:47;12.80;99.90
45735;DHT22;31446;49.632;8.328;2023-02-17T15:56:54;12.60;99.90
45735;DHT22;31446;49.632;8.328;2023-02-17T16:12:00;12.50;99.90
45735;DHT22;31446;49.632;8.328;2023-02-17T16:27:09;12.50;99.90
45735;DHT22;31446;49.632;8.328;2023-02-17T16:42:16;12.20;99.90
45735;DHT22;31446;49.632;8.328;2023-02-17T16:57:22;12.00;99.90
45735;DHT22;31446;49.632;8.328;2023-02-17T17:12:29;11.90;99.90
45735;DHT22;31446;49.632;8.328;2023-02-17T17:27:35;12.00;99.90
45735;DHT22;31446;49.632;8.328;2023-02-17T17:42:41;12.10;99.90
45735;DHT22;31446;49.632;8.328;2023-02-17T17:57:47;11.90;99.90
45735;DHT22;31446;49.632;8.328;2023-02-17T18:12:55;12.10;99.90
45735;DHT22;31446;49.632;8.328;2023-02-17T18:28:01;12.20;99.90
45735;DHT22;31446;49.632;8.328;2023-02-17T18:43:08;12.30;99.90
45735;DHT22;31446;49.632;8.328;2023-02-17T18:58:15;12.50;99.90
45735;DHT22;31446;49.632;8.328;2023-02-17T19:13:21;12.60;99.90
45735;DHT22;31446;49.632;8.328;2023-02-17T19:28:27;12.80;99.90
45735;DHT22;31446;49.632;8.328;2023-02-17T19:43:34;12.80;99.90
45735;DHT22;31446;49.632;8.328;2023-02-17T19:58:40;12.50;99.90
45735;DHT22;31446;49.632;8.328;2023-02-17T20:13:47;12.60;99.90
45735;DHT22;31446;49.632;8.328;2023-02-17T20:28:53;12.60;99.90
45735;DHT22;31446;49.632;8.328;2023-02-17T20:43:59;12.70;99.90
45735;DHT22;31446;49.632;8.328;2023-02-17T20:59:08;12.70;99.90
45735;DHT22;31446;49.632;8.328;2023-02-17T21:14:15;12.60;99.90
45735;DHT22;31446;49.632;8.328;2023-02-17T21:29:21;12.50;99.90
45735;DHT22;31446;49.632;8.328;2023-02-17T21:44:27;12.40;99.90
45735;DHT22;31446;49.632;8.328;2023-02-17T21:59:46;12.40;99.90
45735;DHT22;31446;49.632;8.328;2023-02-17T22:14:52;12.40;99.90
45735;DHT22;31446;49.632;8.328;2023-02-17T22:29:58;12.60;99.90
45735;DHT22;31446;49.632;8.328;2023-02-17T22:45:05;12.50;99.90
45735;DHT22;31446;49.632;8.328;2023-02-17T23:00:13;12.60;99.90
45735;DHT22;31446;49.632;8.328;2023-02-17T23:15:19;12.60;99.90
45735;DHT22;31446;49.632;8.328;2023-02-17T23:30:41;12.60;99.90
45735;DHT22;31446;49.632;8.328;2023-02-17T23:45:49;12.60;99.90
